Time;durP1;ratioP1;P1;durP2;ratioP2;P2;SDS_P1;SDS_P2;PMS_P1;PMS_P2;Temp;Humidity;BMP_temperature;BMP_pressure;BME280_temperature;BME280_humidity;BME280_pressure;Samples;Min_cycle;Max_cycle;Signal;HPM_P1;HPM_P2
2021/12/22 00:01:08;;;;;;;42.45;15.85;;;;;;;-3.90;89.23;102734.19;5008220;28;20181;-64
2021/12/22 00:03:33;;;;;;;33.08;16.30;;;;;;;-3.93;89.17;102736.56;5007725;28;20505;-64
2021/12/22 00:05:59;;;;;;;42.55;15.80;;;;;;;-3.98;89.30;102732.84;5006927;28;20404;-64
2021/12/22 00:08:26;;;;;;;33.80;14.73;;;;;;;-4.02;88.91;102736.03;4989436;28;20053;-64
2021/12/22 00:10:51;;;;;;;32.83;14.25;;;;;;;-4.04;88.94;102735.09;5006350;28;20033;-63
2021/12/22 00:13:16;;;;;;;38.42;15.40;;;;;;;-4.06;88.87;102737.56;5005093;28;20060;-63
2021/12/22 00:15:42;;;;;;;40.03;15.15;;;;;;;-4.09;89.06;102730.53;5007398;28;20084;-63
2021/12/22 00:18:07;;;;;;;42.72;16.38;;;;;;;-4.10;89.21;102727.88;5007259;28;20033;-63
2021/12/22 00:20:33;;;;;;;37.70;15.38;;;;;;;-4.12;89.15;102717.47;5007414;28;20026;-64
2021/12/22 00:22:59;;;;;;;48.88;17.75;;;;;;;-4.10;88.93;102712.41;5006930;28;20469;-64
2021/12/22 00:25:26;;;;;;;48.33;18.38;;;;;;;-4.10;89.09;102718.47;5007637;28;20041;-67
2021/12/22 00:27:53;;;;;;;45.45;18.33;;;;;;;-4.10;89.18;102713.31;5006361;28;20037;-65
2021/12/22 00:30:18;;;;;;;49.60;19.35;;;;;;;-4.13;88.94;102707.13;5007959;28;20030;-64
2021/12/22 00:32:50;;;;;;;55.22;21.58;;;;;;;-4.11;89.19;102702.94;5006874;28;20105;-65
2021/12/22 00:35:19;;;;;;;47.00;17.75;;;;;;;-4.13;89.16;102705.41;4990615;28;20025;-64
2021/12/22 00:37:44;;;;;;;45.42;18.63;;;;;;;-4.13;89.22;102708.00;4990819;28;20033;-61
2021/12/22 00:40:10;;;;;;;57.78;21.60;;;;;;;-4.10;89.16;102710.75;4989717;28;20037;-64
2021/12/22 00:42:35;;;;;;;49.10;21.15;;;;;;;-4.09;89.31;102712.50;5007513;28;20548;-64
2021/12/22 00:45:00;;;;;;;60.15;25.60;;;;;;;-4.01;89.67;102712.97;5007320;28;20053;-64
2021/12/22 00:47:28;;;;;;;60.97;23.88;;;;;;;-4.00;89.45;102711.28;4990077;28;20033;-63
2021/12/22 00:49:54;;;;;;;64.97;24.77;;;;;;;-3.96;89.42;102705.50;5005269;28;20022;-63
2021/12/22 00:52:19;;;;;;;64.38;24.25;;;;;;;-3.95;89.58;102708.16;4990438;28;20100;-63
2021/12/22 00:54:45;;;;;;;63.90;26.60;;;;;;;-3.94;89.47;102709.06;5010191;28;20049;-65
2021/12/22 00:57:11;;;;;;;68.50;25.33;;;;;;;-3.93;89.55;102705.66;5010362;28;20026;-64
2021/12/22 00:59:37;;;;;;;74.80;27.50;;;;;;;-3.94;89.50;102703.91;5011082;28;20120;-63
2021/12/22 01:02:05;;;;;;;44.40;19.48;;;;;;;-4.01;89.28;102706.94;5010304;28;20477;-63
2021/12/22 01:04:31;;;;;;;44.67;16.05;;;;;;;-4.09;89.19;102712.50;5010645;28;20467;-63
2021/12/22 01:06:56;;;;;;;40.22;16.30;;;;;;;-4.15;89.13;102706.13;4992865;28;20113;-64
2021/12/22 01:09:21;;;;;;;33.40;15.23;;;;;;;-4.19;89.07;102717.94;4993352;28;20057;-63
2021/12/22 01:11:47;;;;;;;57.65;21.80;;;;;;;-4.19;89.03;102715.38;5009882;28;20026;-64
2021/12/22 01:14:13;;;;;;;39.63;18.65;;;;;;;-4.22;89.23;102718.66;5010972;28;20068;-65
2021/12/22 01:16:39;;;;;;;38.95;17.92;;;;;;;-4.25;89.39;102722.75;5010251;28;20033;-64
2021/12/22 01:19:11;;;;;;;40.88;16.23;;;;;;;-4.29;89.28;102720.78;4992142;28;20165;-64
2021/12/22 01:21:48;;;;;;;35.88;16.23;;;;;;;-4.32;89.33;102721.50;5010084;28;20088;-64
2021/12/22 01:24:21;;;;;;;48.05;18.73;;;;;;;-4.35;89.14;102722.22;5009445;28;20033;-64
2021/12/22 01:26:51;;;;;;;32.03;16.05;;;;;;;-4.37;89.23;102723.78;5011263;28;20451;-67
2021/12/22 01:29:17;;;;;;;52.90;18.70;;;;;;;-4.40;89.51;102723.63;5010113;28;20111;-68
2021/12/22 01:31:43;;;;;;;43.40;16.23;;;;;;;-4.44;89.40;102717.41;5011454;28;20069;-62
2021/12/22 01:34:09;;;;;;;61.28;21.35;;;;;;;-4.42;89.25;102720.09;5010504;28;20022;-65
2021/12/22 01:36:35;;;;;;;58.70;24.13;;;;;;;-4.32;89.53;102714.66;5010450;28;20050;-64
2021/12/22 01:39:01;;;;;;;61.97;24.58;;;;;;;-4.26;89.52;102716.72;5010836;28;20388;-64
2021/12/22 01:41:26;;;;;;;55.67;22.33;;;;;;;-4.24;89.66;102711.66;5009872;28;20133;-63
2021/12/22 01:43:51;;;;;;;69.82;22.00;;;;;;;-4.26;89.70;102710.66;4993396;28;20064;-64
2021/12/22 01:49:09;;;;;;;42.70;16.50;;;;;;;-4.37;89.47;102710.94;4994561;28;20069;-63
2021/12/22 01:51:43;;;;;;;55.33;20.35;;;;;;;-4.38;89.51;102704.00;4992462;28;20034;-64
2021/12/22 01:54:14;;;;;;;46.08;16.83;;;;;;;-4.42;89.65;102704.66;5010018;28;20030;-62
2021/12/22 01:56:41;;;;;;;37.88;15.52;;;;;;;-4.46;89.29;102693.25;4993034;28;20111;-64
2021/12/22 01:59:08;;;;;;;45.08;17.17;;;;;;;-4.47;89.32;102691.50;5009224;28;20393;-63
2021/12/22 02:01:33;;;;;;;45.25;15.98;;;;;;;-4.46;89.46;102692.38;5009181;28;20034;-64
2021/12/22 02:04:00;;;;;;;47.05;16.25;;;;;;;-4.48;89.67;102692.28;5007327;28;20117;-64
2021/12/22 02:06:25;;;;;;;49.80;18.90;;;;;;;-4.47;89.44;102693.19;5008730;28;20048;-65
2021/12/22 02:08:52;;;;;;;47.72;17.45;;;;;;;-4.50;89.54;102693.00;5008229;28;20524;-63
2021/12/22 02:11:18;;;;;;;48.40;19.38;;;;;;;-4.50;89.68;102700.72;4993122;28;20018;-65
2021/12/22 02:13:49;;;;;;;46.70;17.98;;;;;;;-4.54;89.71;102702.25;5010227;28;20030;-64
2021/12/22 02:16:16;;;;;;;43.17;19.27;;;;;;;-4.54;89.58;102701.34;4989522;28;20028;-63
2021/12/22 02:18:49;;;;;;;39.70;16.42;;;;;;;-4.57;89.45;102713.22;5010012;28;20092;-64
2021/12/22 02:21:15;;;;;;;71.07;20.63;;;;;;;-4.58;89.25;102708.88;5009055;28;20029;-65
2021/12/22 02:23:41;;;;;;;67.57;23.33;;;;;;;-4.54;89.61;102706.47;5010500;28;20029;-64
2021/12/22 02:26:31;;;;;;;69.93;25.45;;;;;;;-4.46;89.52;102705.22;5008102;28;20045;-64
2021/12/22 02:29:01;;;;;;;66.93;23.80;;;;;;;-4.44;89.94;102701.97;5009102;28;20124;-66
2021/12/22 02:31:27;;;;;;;62.75;21.88;;;;;;;-4.44;89.47;102706.22;5008860;28;20385;-63
2021/12/22 02:33:53;;;;;;;69.63;23.05;;;;;;;-4.45;89.80;102702.75;4992125;28;20026;-62
2021/12/22 02:36:27;;;;;;;68.15;23.45;;;;;;;-4.41;89.85;102710.66;5008159;28;20061;-65
2021/12/22 02:38:55;;;;;;;66.90;24.40;;;;;;;-4.40;89.86;102712.47;5001646;28;20037;-64
2021/12/22 02:41:26;;;;;;;65.53;24.88;;;;;;;-4.39;89.65;102715.13;5008416;28;20026;-64
2021/12/22 02:43:54;;;;;;;71.03;26.60;;;;;;;-4.39;89.73;102720.28;5008870;28;20041;-65
2021/12/22 02:46:26;;;;;;;74.35;24.33;;;;;;;-4.39;89.88;102719.38;5008806;28;20022;-65
2021/12/22 02:48:52;;;;;;;64.97;24.08;;;;;;;-4.44;89.76;102725.13;5008215;28;20506;-64
2021/12/22 02:51:19;;;;;;;70.65;25.27;;;;;;;-4.40;89.91;102733.91;4991305;28;20029;-64
2021/12/22 02:57:07;;;;;;;70.20;24.40;;;;;;;-4.42;89.91;102730.38;5008900;28;20041;-64
2021/12/22 02:59:03;;;;;;;40.35;15.63;;;;;;;-4.50;89.59;102726.44;4984680;28;20042;-64
2021/12/22 03:04:04;;;;;;;65.47;21.95;;;;;;;-4.49;90.21;102718.81;4989259;28;20045;-65
2021/12/22 03:06:37;;;;;;;66.70;20.90;;;;;;;-4.39;90.61;102714.22;4989772;28;20046;-65
2021/12/22 03:09:19;;;;;;;50.88;17.60;;;;;;;-4.38;90.62;102716.88;4986659;28;20038;-64
2021/12/22 03:11:45;;;;;;;53.83;18.58;;;;;;;-4.39;90.52;102724.50;5008666;28;20025;-63
2021/12/22 03:14:11;;;;;;;70.43;24.00;;;;;;;-4.33;90.32;102717.16;5009013;28;20033;-65
2021/12/22 03:16:37;;;;;;;65.22;24.00;;;;;;;-4.29;90.14;102716.53;5009032;28;20041;-64
2021/12/22 03:19:03;;;;;;;49.95;17.52;;;;;;;-4.31;90.17;102705.25;5006662;28;20436;-59
2021/12/22 03:21:28;;;;;;;46.05;16.50;;;;;;;-4.37;90.12;102703.22;4990212;28;20507;-64
2021/12/22 03:23:56;;;;;;;64.82;23.05;;;;;;;-4.42;90.12;102699.50;4972149;28;20567;-64
2021/12/22 03:26:23;;;;;;;72.80;23.63;;;;;;;-4.39;89.97;102694.53;4990426;28;20025;-63
2021/12/22 03:28:50;;;;;;;81.97;26.90;;;;;;;-4.31;90.30;102701.00;5007827;28;20018;-65
2021/12/22 03:31:16;;;;;;;45.67;18.38;;;;;;;-4.31;90.50;102697.53;5009035;28;20022;-64
2021/12/22 03:33:43;;;;;;;49.42;16.98;;;;;;;-4.32;90.38;102690.59;5007627;28;20053;-65
2021/12/22 03:36:09;;;;;;;61.03;23.30;;;;;;;-4.36;90.18;102694.69;5006882;28;20036;-64
2021/12/22 03:38:35;;;;;;;64.97;21.20;;;;;;;-4.37;90.36;102692.03;5008145;28;20041;-64
2021/12/22 03:41:01;;;;;;;66.30;21.90;;;;;;;-4.37;89.88;102685.19;5006836;28;20030;-65
2021/12/22 03:43:27;;;;;;;72.32;26.25;;;;;;;-4.35;90.21;102683.59;5008247;28;20370;-64
2021/12/22 03:45:52;;;;;;;59.88;23.60;;;;;;;-4.34;89.94;102687.94;5007229;28;20026;-63
2021/12/22 03:48:18;;;;;;;59.67;19.45;;;;;;;-4.38;90.02;102691.16;4990069;28;20499;-64
2021/12/22 03:50:44;;;;;;;62.20;20.33;;;;;;;-4.41;89.82;102687.50;5007768;28;20018;-65
2021/12/22 03:53:09;;;;;;;51.40;16.50;;;;;;;-4.47;90.22;102688.03;5007207;28;20037;-65
2021/12/22 03:55:35;;;;;;;49.00;18.23;;;;;;;-4.50;89.74;102680.13;5007838;28;20065;-63
2021/12/22 03:58:00;;;;;;;48.05;18.40;;;;;;;-4.55;89.96;102676.41;5008109;28;20033;-64
2021/12/22 04:00:26;;;;;;;43.25;17.80;;;;;;;-4.55;89.97;102677.28;5006963;28;20038;-65
2021/12/22 04:02:51;;;;;;;46.53;17.55;;;;;;;-4.59;90.02;102678.81;5006641;28;20510;-65
2021/12/22 04:05:18;;;;;;;51.45;17.67;;;;;;;-4.60;89.95;102674.44;5005662;28;20042;-64
2021/12/22 04:07:43;;;;;;;65.57;17.40;;;;;;;-4.59;89.87;102670.19;5008456;28;20374;-64
2021/12/22 04:10:19;;;;;;;50.42;18.80;;;;;;;-4.60;89.98;102673.56;5006049;28;20092;-64
2021/12/22 04:12:50;;;;;;;58.90;19.73;;;;;;;-4.55;89.95;102681.56;5007082;28;20036;-64
2021/12/22 04:15:16;;;;;;;56.17;20.27;;;;;;;-4.54;89.84;102675.59;4990976;28;20113;-63
2021/12/22 04:17:42;;;;;;;62.67;20.63;;;;;;;-4.53;89.84;102675.69;5007476;28;20097;-65
2021/12/22 04:20:07;;;;;;;46.72;15.82;;;;;;;-4.57;89.92;102674.63;4988665;28;20117;-64
2021/12/22 04:22:34;;;;;;;52.65;16.05;;;;;;;-4.58;89.91;102671.94;5008178;28;20466;-64
2021/12/22 04:24:59;;;;;;;57.83;20.08;;;;;;;-4.57;90.04;102664.31;5006656;28;20560;-66
2021/12/22 04:27:24;;;;;;;50.33;17.20;;;;;;;-4.54;90.20;102661.06;5007752;28;20053;-65
2021/12/22 04:29:49;;;;;;;63.92;21.33;;;;;;;-4.53;90.29;102651.63;5004664;28;20535;-64
2021/12/22 04:32:15;;;;;;;56.50;21.67;;;;;;;-4.52;90.26;102648.28;5007374;28;20489;-64
2021/12/22 04:34:40;;;;;;;55.88;16.88;;;;;;;-4.52;90.19;102648.28;5005822;28;20088;-64
2021/12/22 04:37:05;;;;;;;65.38;21.23;;;;;;;-4.49;90.10;102651.03;4988619;28;20523;-65
2021/12/22 04:39:32;;;;;;;59.60;20.02;;;;;;;-4.49;90.12;102649.34;5007981;28;20053;-65
2021/12/22 04:41:59;;;;;;;55.60;19.02;;;;;;;-4.47;90.07;102649.44;5006209;28;20018;-65
2021/12/22 04:44:24;;;;;;;56.35;18.90;;;;;;;-4.48;90.12;102648.53;5005981;28;20034;-65
2021/12/22 04:46:49;;;;;;;58.10;19.15;;;;;;;-4.51;89.94;102650.06;4990301;28;20045;-65
2021/12/22 04:49:15;;;;;;;57.90;21.05;;;;;;;-4.50;89.99;102649.25;5006328;28;20026;-65
2021/12/22 04:51:48;;;;;;;51.35;17.17;;;;;;;-4.52;90.32;102640.56;5008019;28;20431;-65
2021/12/22 04:56:42;;;;;;;48.88;17.13;;;;;;;-4.48;90.20;102639.94;5007090;28;20420;-65
2021/12/22 04:59:07;;;;;;;58.70;18.73;;;;;;;-4.51;90.00;102642.34;4987718;28;20034;-65
2021/12/22 05:01:32;;;;;;;64.90;17.98;;;;;;;-4.50;90.10;102637.28;5006224;28;20034;-66
2021/12/22 05:03:58;;;;;;;61.22;20.27;;;;;;;-4.47;90.00;102640.03;5005830;28;20373;-65
2021/12/22 05:06:24;;;;;;;54.33;17.90;;;;;;;-4.46;90.32;102640.91;5006109;28;20037;-65
2021/12/22 05:08:50;;;;;;;44.42;14.63;;;;;;;-4.49;90.05;102645.91;5006820;28;20124;-64
2021/12/22 05:11:16;;;;;;;48.20;14.48;;;;;;;-4.54;89.97;102626.72;5005297;28;20041;-65
2021/12/22 05:13:41;;;;;;;66.45;19.98;;;;;;;-4.54;90.14;102635.34;5007576;28;20034;-65
2021/12/22 05:16:06;;;;;;;53.85;18.10;;;;;;;-4.49;90.24;102621.03;5006182;28;20037;-65
2021/12/22 05:21:17;;;;;;;60.53;18.25;;;;;;;-4.49;90.30;102626.19;5007294;28;20788;-63
2021/12/22 05:23:43;;;;;;;63.75;21.08;;;;;;;-4.41;90.45;102629.19;5005859;28;20116;-65
2021/12/22 05:26:08;;;;;;;65.03;21.92;;;;;;;-4.39;90.61;102625.03;5007231;28;20044;-65
2021/12/22 05:28:33;;;;;;;68.03;20.50;;;;;;;-4.38;90.36;102629.38;4988994;28;20061;-64
2021/12/22 05:30:59;;;;;;;75.22;27.17;;;;;;;-4.24;90.72;102629.28;5006025;28;20026;-64
2021/12/22 05:33:24;;;;;;;70.13;24.98;;;;;;;-4.26;90.70;102626.59;4988975;28;20440;-65
2021/12/22 05:35:49;;;;;;;71.00;23.52;;;;;;;-4.23;90.55;102629.34;5004883;28;20057;-65
2021/12/22 05:38:15;;;;;;;68.55;21.52;;;;;;;-4.26;90.33;102621.47;5007482;28;20688;-66
2021/12/22 05:40:40;;;;;;;65.53;20.50;;;;;;;-4.27;90.33;102626.53;5010480;28;20026;-63
2021/12/22 05:43:05;;;;;;;77.25;21.88;;;;;;;-4.27;90.30;102626.53;4990930;28;20112;-66
2021/12/22 05:45:31;;;;;;;74.25;21.33;;;;;;;-4.24;90.56;102621.53;5010472;28;20029;-66
2021/12/22 05:47:56;;;;;;;69.20;24.02;;;;;;;-4.19;90.63;102622.69;5008899;28;20925;-64
2021/12/22 05:50:22;;;;;;;71.68;20.75;;;;;;;-4.24;90.27;102621.53;5006306;28;20362;-65
2021/12/22 05:52:48;;;;;;;57.45;21.13;;;;;;;-4.22;90.33;102630.22;5010320;28;20045;-64
2021/12/22 05:55:14;;;;;;;69.95;21.30;;;;;;;-4.24;90.13;102631.84;4993912;28;20072;-65
2021/12/22 05:57:39;;;;;;;65.13;23.05;;;;;;;-4.27;90.05;102634.25;4992605;28;20427;-65
2021/12/22 06:00:06;;;;;;;70.53;20.15;;;;;;;-4.31;90.39;102626.34;5010112;28;20037;-64
2021/12/22 06:02:31;;;;;;;65.85;21.75;;;;;;;-4.36;89.98;102625.19;5010239;28;20499;-65
2021/12/22 06:04:57;;;;;;;56.55;21.80;;;;;;;-4.34;90.18;102636.47;5008741;28;20042;-66
2021/12/22 06:07:22;;;;;;;65.47;22.15;;;;;;;-4.37;89.81;102631.13;5010405;28;20018;-64
2021/12/22 06:09:47;;;;;;;60.75;19.80;;;;;;;-4.38;90.02;102633.63;5009912;28;20030;-64
2021/12/22 06:12:13;;;;;;;59.45;19.60;;;;;;;-4.39;89.97;102637.00;5010280;28;20100;-65
2021/12/22 06:14:38;;;;;;;74.05;20.17;;;;;;;-4.41;90.11;102638.59;5010277;28;20113;-66
2021/12/22 06:17:03;;;;;;;83.47;23.60;;;;;;;-4.46;90.13;102634.06;5009894;28;20125;-65
2021/12/22 06:19:29;;;;;;;58.60;19.35;;;;;;;-4.50;89.97;102624.41;5008867;28;20061;-65
2021/12/22 06:21:54;;;;;;;60.05;20.77;;;;;;;-4.50;89.85;102626.97;5009775;28;20557;-65
2021/12/22 06:24:20;;;;;;;56.00;18.52;;;;;;;-4.53;90.07;102628.47;5009348;28;20034;-65
2021/12/22 06:26:45;;;;;;;61.42;21.25;;;;;;;-4.50;90.13;102623.50;4992413;28;20053;-65
2021/12/22 06:29:11;;;;;;;71.72;23.65;;;;;;;-4.54;90.21;102624.16;4992233;28;20069;-65
2021/12/22 06:31:36;;;;;;;71.43;21.30;;;;;;;-4.51;90.33;102626.91;5008729;28;20040;-65
2021/12/22 06:34:03;;;;;;;52.15;18.27;;;;;;;-4.54;90.27;102621.56;4989166;28;20065;-66
2021/12/22 06:36:28;;;;;;;72.25;23.30;;;;;;;-4.49;90.48;102618.47;5009607;28;20071;-64
2021/12/22 06:38:53;;;;;;;74.03;25.23;;;;;;;-4.42;90.44;102617.13;5008598;28;20416;-65
2021/12/22 06:41:18;;;;;;;59.80;20.70;;;;;;;-4.37;90.65;102625.13;5007888;28;20480;-65
2021/12/22 06:43:44;;;;;;;74.18;22.75;;;;;;;-4.40;90.55;102625.81;5010061;28;20034;-64
2021/12/22 06:46:10;;;;;;;63.42;21.00;;;;;;;-4.36;90.31;102625.19;5009008;28;20029;-65
2021/12/22 06:48:35;;;;;;;60.00;21.27;;;;;;;-4.33;90.48;102627.06;4989232;28;20168;-65
2021/12/22 06:51:00;;;;;;;58.47;21.48;;;;;;;-4.38;90.18;102628.47;5008767;28;20380;-65
2021/12/22 06:53:25;;;;;;;68.28;20.80;;;;;;;-4.42;90.03;102626.53;5008533;28;20504;-66
2021/12/22 06:55:51;;;;;;;67.00;22.65;;;;;;;-4.35;90.23;102631.22;5008580;28;20504;-64
2021/12/22 06:58:16;;;;;;;67.43;23.10;;;;;;;-4.33;90.20;102629.63;5009278;28;20485;-64
2021/12/22 07:00:42;;;;;;;63.63;22.17;;;;;;;-4.34;90.26;102623.59;5008753;28;20018;-64
2021/12/22 07:03:07;;;;;;;61.85;21.30;;;;;;;-4.40;90.32;102628.38;5007607;28;20037;-64
2021/12/22 07:05:33;;;;;;;68.97;22.95;;;;;;;-4.36;90.00;102625.19;5008168;28;20050;-65
2021/12/22 07:07:58;;;;;;;75.78;25.83;;;;;;;-4.33;90.15;102627.94;4989711;28;20022;-65
2021/12/22 07:10:24;;;;;;;75.65;23.92;;;;;;;-4.35;90.18;102628.66;4991654;28;20026;-65
2021/12/22 07:12:49;;;;;;;65.05;20.50;;;;;;;-4.40;90.18;102625.81;5007745;28;20030;-64
2021/12/22 07:15:17;;;;;;;71.35;22.35;;;;;;;-4.44;90.26;102621.28;5007919;28;20028;-63
2021/12/22 07:17:44;;;;;;;56.33;18.77;;;;;;;-4.46;90.09;102620.31;5009033;28;20021;-65
2021/12/22 07:20:10;;;;;;;85.35;20.00;;;;;;;-4.42;90.09;102616.25;4989932;28;20148;-66
2021/12/22 07:22:36;;;;;;;62.25;22.77;;;;;;;-4.44;90.03;102617.03;5008046;28;20509;-65
2021/12/22 07:25:03;;;;;;;67.38;22.52;;;;;;;-4.36;90.44;102607.16;5008480;28;20017;-65
2021/12/22 07:27:28;;;;;;;66.40;23.30;;;;;;;-4.36;90.38;102603.72;5008058;28;20038;-66
2021/12/22 07:29:54;;;;;;;66.63;25.35;;;;;;;-4.39;90.38;102601.88;5007384;28;20034;-66
2021/12/22 07:32:19;;;;;;;66.93;22.15;;;;;;;-4.42;90.32;102609.41;5008652;28;20026;-66
2021/12/22 07:34:57;;;;;;;65.05;21.13;;;;;;;-4.42;90.47;102611.09;5005365;28;20069;-65
2021/12/22 07:37:44;;;;;;;71.15;24.42;;;;;;;-4.43;90.33;102602.47;4991007;28;20029;-64
2021/12/22 07:40:14;;;;;;;61.30;20.90;;;;;;;-4.44;90.47;102601.59;5008101;28;20033;-65
2021/12/22 07:42:39;;;;;;;81.47;27.00;;;;;;;-4.36;90.67;102599.44;5007850;28;20030;-66
2021/12/22 07:45:06;;;;;;;82.32;26.98;;;;;;;-4.35;90.23;102602.91;5008247;28;20033;-66
2021/12/22 07:47:31;;;;;;;74.28;24.15;;;;;;;-4.41;90.40;102599.97;5007759;28;20033;-65
2021/12/22 07:49:57;;;;;;;94.18;32.28;;;;;;;-4.25;91.12;102605.19;5005111;28;20021;-65
2021/12/22 07:52:26;;;;;;;103.43;35.10;;;;;;;-4.06;91.75;102604.53;5008091;28;20030;-65
2021/12/22 07:54:51;;;;;;;91.15;32.85;;;;;;;-4.02;92.10;102605.59;5006523;28;20388;-64
2021/12/22 07:57:17;;;;;;;81.47;27.15;;;;;;;-4.09;91.67;102606.94;4990148;28;20026;-65
2021/12/22 07:59:42;;;;;;;72.70;25.13;;;;;;;-4.14;91.12;102610.97;5007320;28;20030;-65
2021/12/22 08:02:09;;;;;;;72.95;25.52;;;;;;;-4.15;90.56;102605.72;5006567;28;20030;-66
2021/12/22 08:04:35;;;;;;;61.15;25.25;;;;;;;-4.21;90.58;102609.72;5006453;28;20060;-62
2021/12/22 08:07:00;;;;;;;70.35;23.65;;;;;;;-4.23;90.44;102613.91;5006313;28;20026;-62
2021/12/22 08:09:26;;;;;;;73.82;23.20;;;;;;;-4.24;90.47;102618.97;5006443;28;20053;-64
2021/12/22 08:11:53;;;;;;;76.13;25.73;;;;;;;-4.25;90.60;102627.50;5006796;28;20252;-63
2021/12/22 08:14:18;;;;;;;74.60;29.40;;;;;;;-4.21;90.41;102619.16;5007013;28;20036;-65
2021/12/22 08:16:44;;;;;;;69.90;27.20;;;;;;;-4.24;90.28;102621.53;4989192;28;20026;-67
2021/12/22 08:19:09;;;;;;;74.22;23.73;;;;;;;-4.22;90.37;102614.78;4983219;28;20443;-60
2021/12/22 08:21:35;;;;;;;75.00;24.85;;;;;;;-4.19;90.31;102614.94;5006963;28;20096;-63
2021/12/22 08:24:00;;;;;;;84.50;28.00;;;;;;;-4.21;90.53;102614.00;5006499;28;20626;-56
2021/12/22 08:26:25;;;;;;;75.38;24.80;;;;;;;-4.18;90.04;102615.03;5006429;28;20054;-59
2021/12/22 08:28:51;;;;;;;62.83;25.05;;;;;;;-4.19;90.35;102613.28;5006737;28;20044;-63
2021/12/22 08:31:16;;;;;;;67.00;24.48;;;;;;;-4.18;90.70;102606.44;5006454;28;20031;-59
2021/12/22 08:33:45;;;;;;;72.40;23.50;;;;;;;-4.17;90.43;102610.78;5006089;28;20076;-66
2021/12/22 08:38:55;;;;;;;74.03;24.75;;;;;;;-4.13;90.66;102607.56;5005591;28;20116;-65
2021/12/22 08:41:26;;;;;;;69.38;25.02;;;;;;;-4.10;90.46;102612.91;5004196;28;20112;-66
2021/12/22 08:43:53;;;;;;;56.25;24.75;;;;;;;-4.06;90.59;102601.97;4998459;28;20014;-64
2021/12/22 08:46:19;;;;;;;68.53;27.48;;;;;;;-4.03;90.56;102606.41;4999815;28;20026;-67
2021/12/22 08:48:45;;;;;;;73.25;25.83;;;;;;;-4.01;90.61;102609.94;5006435;28;20052;-66
2021/12/22 08:51:10;;;;;;;77.43;27.73;;;;;;;-3.97;90.41;102598.13;4998183;28;20464;-66
2021/12/22 08:53:35;;;;;;;71.90;27.25;;;;;;;-3.91;90.29;102598.47;5000912;28;20060;-67
2021/12/22 08:56:01;;;;;;;50.78;22.33;;;;;;;-3.84;90.43;102607.41;5006636;28;20014;-65
2021/12/22 08:58:26;;;;;;;62.03;22.63;;;;;;;-3.79;90.48;102605.97;4998532;28;20058;-66
2021/12/22 09:00:52;;;;;;;70.75;25.33;;;;;;;-3.69;90.54;102603.09;5004671;28;20437;-66
2021/12/22 09:03:17;;;;;;;58.25;21.88;;;;;;;-3.64;90.53;102611.06;5005036;28;20101;-66
2021/12/22 09:05:42;;;;;;;63.67;29.52;;;;;;;-3.64;90.33;102600.78;5004555;28;20475;-65
2021/12/22 09:08:08;;;;;;;63.17;27.15;;;;;;;-3.61;90.19;102595.75;5004463;28;20178;-66
2021/12/22 09:10:33;;;;;;;51.75;24.63;;;;;;;-3.51;90.48;102599.72;4989081;28;20439;-66
2021/12/22 09:12:59;;;;;;;58.67;24.50;;;;;;;-3.44;90.23;102611.22;5004822;28;20223;-67
2021/12/22 09:15:24;;;;;;;50.78;25.25;;;;;;;-3.39;90.32;102612.38;5010283;28;20041;-67
2021/12/22 09:17:49;;;;;;;60.72;24.83;;;;;;;-3.31;90.02;102613.66;5009674;28;20072;-66
2021/12/22 09:20:15;;;;;;;59.33;26.45;;;;;;;-3.27;90.02;102611.22;5008790;28;20045;-63
2021/12/22 09:22:40;;;;;;;49.72;22.85;;;;;;;-3.23;89.66;102611.47;5009000;28;20109;-67
2021/12/22 09:25:06;;;;;;;43.85;21.80;;;;;;;-3.20;89.77;102611.63;5009982;28;20098;-67
2021/12/22 09:27:31;;;;;;;51.85;23.67;;;;;;;-3.12;90.02;102613.72;5009741;28;20089;-64
2021/12/22 09:29:57;;;;;;;52.22;24.27;;;;;;;-3.12;89.55;102606.88;5009348;28;20030;-68
2021/12/22 09:32:22;;;;;;;53.35;23.67;;;;;;;-3.09;89.50;102596.72;5010450;28;20018;-67
2021/12/22 09:34:51;;;;;;;50.25;21.17;;;;;;;-3.11;89.42;102597.44;5007823;28;20030;-65
2021/12/22 09:37:17;;;;;;;;;;;;;;;-3.08;89.54;102592.44;5011107;28;20032;-67
2021/12/22 09:39:43;;;;;;;46.10;21.95;;;;;;;-3.09;88.85;102593.25;5009787;28;19996;-67
2021/12/22 09:42:09;;;;;;;54.03;23.80;;;;;;;-3.05;89.28;102592.59;5009272;28;20030;-66
2021/12/22 09:44:42;;;;;;;49.65;22.77;;;;;;;-3.07;89.59;102597.66;4976636;28;20092;-66
2021/12/22 09:47:08;;;;;;;48.15;24.50;;;;;;;-3.05;89.48;102596.06;5009279;28;20037;-65
2021/12/22 09:54:59;;;;;;;58.53;25.08;;;;;;;-2.84;88.72;102589.31;4996513;28;20129;-65
2021/12/22 09:57:26;;;;;;;51.47;23.65;;;;;;;-2.75;88.74;102596.63;5010386;28;20101;-64
2021/12/22 09:59:53;;;;;;;47.17;23.83;;;;;;;-2.70;88.45;102596.06;5009845;28;20388;-64
2021/12/22 10:02:20;;;;;;;48.70;23.17;;;;;;;-2.67;87.80;102597.91;5007876;28;20547;-67
2021/12/22 10:04:46;;;;;;;50.05;22.77;;;;;;;-2.62;87.69;102596.44;5008450;28;20042;-66
2021/12/22 10:07:23;;;;;;;42.95;22.92;;;;;;;-2.53;88.55;102590.81;5009040;28;20022;-67
2021/12/22 10:09:50;;;;;;;34.17;19.58;;;;;;;-2.46;88.09;102585.19;5009681;28;20072;-66
2021/12/22 10:12:24;;;;;;;41.28;22.95;;;;;;;-2.39;88.13;102591.50;5008992;28;20044;-67
2021/12/22 10:14:55;;;;;;;44.72;19.95;;;;;;;-2.30;88.23;102586.78;5007258;28;20030;-67
2021/12/22 10:17:39;;;;;;;48.70;21.40;;;;;;;-2.25;87.74;102587.03;4992119;28;20416;-65
2021/12/22 10:20:08;;;;;;;38.20;20.08;;;;;;;-2.11;87.84;102582.47;5007120;28;20025;-66
2021/12/22 10:22:37;;;;;;;34.78;20.23;;;;;;;-2.11;86.34;102589.38;5009080;28;20113;-65
2021/12/22 10:25:09;;;;;;;45.53;21.75;;;;;;;-2.03;86.53;102595.78;5008092;28;20029;-66
2021/12/22 10:27:35;;;;;;;36.97;19.75;;;;;;;-1.90;86.74;102589.47;5008742;28;20048;-67
2021/12/22 10:30:19;;;;;;;44.33;20.23;;;;;;;-1.88;86.31;102585.25;5009439;28;20017;-65
2021/12/22 10:32:44;;;;;;;39.67;18.42;;;;;;;-1.73;87.77;102591.94;4989898;28;20511;-66
2021/12/22 10:35:10;;;;;;;48.65;21.52;;;;;;;-1.65;87.23;102588.88;5009294;28;20033;-67
2021/12/22 10:37:44;;;;;;;36.25;17.30;;;;;;;-1.53;86.59;102583.38;5008699;28;20431;-66
2021/12/22 10:40:27;;;;;;;37.42;19.10;;;;;;;-1.46;85.25;102586.25;5009012;28;20044;-66
2021/12/22 10:42:53;;;;;;;35.90;20.90;;;;;;;-1.36;85.54;102583.25;5009101;28;20420;-65
2021/12/22 10:45:20;;;;;;;36.67;18.50;;;;;;;-1.24;85.29;102576.84;5006697;28;20026;-66
2021/12/22 10:50:42;;;;;;;35.67;18.90;;;;;;;-1.13;84.92;102562.66;5007643;28;20547;-66
2021/12/22 10:53:08;;;;;;;28.42;16.77;;;;;;;-1.00;85.68;102563.19;4991484;28;20030;-64
2021/12/22 10:55:48;;;;;;;34.22;17.65;;;;;;;-1.01;84.02;102567.47;5008504;28;20453;-63
2021/12/22 10:58:32;;;;;;;29.90;17.60;;;;;;;-0.92;83.47;102566.97;5004586;28;20053;-63
2021/12/22 11:01:00;;;;;;;35.15;18.02;;;;;;;-0.95;82.29;102566.84;4999499;28;20317;-71
2021/12/22 11:03:36;;;;;;;33.80;17.50;;;;;;;-0.98;82.04;102569.31;5006104;28;20026;-66
2021/12/22 11:06:03;;;;;;;28.50;15.32;;;;;;;-0.92;83.11;102554.94;5007386;28;20038;-65
2021/12/22 11:08:28;;;;;;;33.60;18.10;;;;;;;-0.83;82.53;102556.13;5007289;28;20517;-64
2021/12/22 11:10:53;;;;;;;34.92;16.38;;;;;;;-0.77;82.11;102552.09;4994019;28;20168;-65
2021/12/22 11:13:20;;;;;;;28.40;15.63;;;;;;;-0.70;81.91;102548.03;4974449;28;20061;-63
2021/12/22 11:15:46;;;;;;;25.85;15.60;;;;;;;-0.71;80.92;102535.03;4973350;28;20473;-63
2021/12/22 11:18:29;;;;;;;27.15;14.20;;;;;;;-0.62;81.67;102537.09;4983956;28;20022;-65
2021/12/22 11:21:16;;;;;;;25.98;15.40;;;;;;;-0.56;80.18;102533.06;4981009;28;20034;-63
2021/12/22 11:23:42;;;;;;;29.20;15.00;;;;;;;-0.58;80.84;102529.53;4983964;28;20460;-64
2021/12/22 11:26:08;;;;;;;29.20;15.48;;;;;;;-0.62;80.46;102524.16;4978204;28;20534;-65
2021/12/22 11:28:34;;;;;;;27.98;14.02;;;;;;;-0.66;81.41;102523.16;4983808;28;20124;-65
2021/12/22 11:31:00;;;;;;;29.27;15.35;;;;;;;-0.61;80.14;102519.03;4983110;28;20018;-65
2021/12/22 11:33:27;;;;;;;28.80;14.65;;;;;;;-0.56;79.88;102521.81;4980033;28;20057;-66